Time;durP1;ratioP1;P1;durP2;ratioP2;P2;SDS_P1;SDS_P2;PMS_P1;PMS_P2;Temp;Humidity;BMP_temperature;BMP_pressure;BME280_temperature;BME280_humidity;BME280_pressure;Samples;Min_cycle;Max_cycle;Signal;HPM_P1;HPM_P2
2023/12/13 00:00:07;;;;;;;21.85;11.10;;;;;;;;;;6096282;23;20009;-85
2023/12/13 00:02:33;;;;;;;20.33;11.00;;;;;;;;;;6096385;23;20385;-84
2023/12/13 00:04:58;;;;;;;18.60;10.43;;;;;;;;;;6096775;23;20028;-85
2023/12/13 00:08:04;;;;;;;20.60;11.10;;;;;;;;;;6096131;23;20072;-83
2023/12/13 00:10:29;;;;;;;19.08;11.63;;;;;;;;;;6029209;23;20021;-84
2023/12/13 00:13:05;;;;;;;19.15;11.20;;;;;;;;;;6078747;23;20093;-85
2023/12/13 00:16:20;;;;;;;16.80;10.88;;;;;;;;;;6050039;23;20017;-86
2023/12/13 00:18:51;;;;;;;22.02;11.35;;;;;;;;;;6131978;23;20017;-85
2023/12/13 00:21:26;;;;;;;19.23;11.25;;;;;;;;;;6039894;23;20022;-85
2023/12/13 00:24:03;;;;;;;17.92;11.07;;;;;;;;;;6033997;23;20500;-86
2023/12/13 00:26:58;;;;;;;22.00;11.10;;;;;;;;;;6011756;23;20044;-85
2023/12/13 00:29:23;;;;;;;22.35;11.30;;;;;;;;;;6101749;23;20409;-85
2023/12/13 00:31:49;;;;;;;20.45;11.48;;;;;;;;;;6074978;23;20041;-85
2023/12/13 00:34:22;;;;;;;19.38;11.82;;;;;;;;;;6049384;23;20013;-84
2023/12/13 00:37:01;;;;;;;20.35;11.27;;;;;;;;;;6025536;23;20070;-85
2023/12/13 00:39:27;;;;;;;23.20;13.43;;;;;;;;;;6060488;23;20010;-84
2023/12/13 00:41:53;;;;;;;21.77;11.63;;;;;;;;;;6086945;23;20093;-84
2023/12/13 00:44:50;;;;;;;21.45;12.80;;;;;;;;;;6070345;23;20020;-84
2023/12/13 00:47:18;;;;;;;23.27;12.95;;;;;;;;;;6078423;23;20026;-83
2023/12/13 00:49:49;;;;;;;21.42;13.27;;;;;;;;;;6034548;23;20053;-86
2023/12/13 00:52:26;;;;;;;21.23;12.73;;;;;;;;;;6092080;23;20021;-85
2023/12/13 00:54:52;;;;;;;23.35;12.27;;;;;;;;;;6091418;23;20014;-85
2023/12/13 00:57:17;;;;;;;23.15;14.00;;;;;;;;;;6038629;23;20394;-84
2023/12/13 00:59:43;;;;;;;25.13;13.63;;;;;;;;;;6046467;23;20041;-85
2023/12/13 01:02:20;;;;;;;23.48;13.95;;;;;;;;;;6076550;23;20022;-86
2023/12/13 01:04:45;;;;;;;23.15;13.50;;;;;;;;;;6061355;23;20073;-84
2023/12/13 01:07:18;;;;;;;23.40;14.55;;;;;;;;;;6091239;23;20341;-85
2023/12/13 01:09:44;;;;;;;29.02;14.88;;;;;;;;;;6058510;23;20098;-85
2023/12/13 01:12:12;;;;;;;28.83;15.95;;;;;;;;;;6097325;23;20407;-85
2023/12/13 01:14:40;;;;;;;22.27;14.15;;;;;;;;;;6114852;23;20393;-85
2023/12/13 01:17:10;;;;;;;;;;;;;;;;;;6033690;23;20025;-85
2023/12/13 01:19:53;;;;;;;26.10;15.38;;;;;;;;;;6049001;23;19986;-84
2023/12/13 01:22:19;;;;;;;27.42;14.38;;;;;;;;;;6065162;23;20044;-82
2023/12/13 01:24:44;;;;;;;27.60;15.02;;;;;;;;;;6115939;23;20036;-83
2023/12/13 01:27:10;;;;;;;26.27;14.82;;;;;;;;;;6090870;23;20014;-84
2023/12/13 01:29:35;;;;;;;26.88;15.18;;;;;;;;;;6092106;23;20018;-84
2023/12/13 01:32:00;;;;;;;24.42;13.70;;;;;;;;;;6091303;23;20348;-83
2023/12/13 01:34:26;;;;;;;25.58;14.60;;;;;;;;;;6118277;23;20516;-84
2023/12/13 01:36:51;;;;;;;26.33;13.80;;;;;;;;;;6116347;23;20017;-84
2023/12/13 01:39:16;;;;;;;24.58;14.73;;;;;;;;;;6093051;23;22475;-84
2023/12/13 01:41:43;;;;;;;25.35;13.40;;;;;;;;;;6117570;23;20037;-83
2023/12/13 01:44:09;;;;;;;27.50;14.37;;;;;;;;;;6080776;23;20024;-85
2023/12/13 01:46:35;;;;;;;26.95;14.68;;;;;;;;;;6116187;23;20085;-84
2023/12/13 01:49:01;;;;;;;26.33;14.77;;;;;;;;;;6118056;23;20014;-84
2023/12/13 01:51:30;;;;;;;24.83;13.93;;;;;;;;;;6093291;23;20373;-84
2023/12/13 01:54:00;;;;;;;26.10;14.68;;;;;;;;;;6096699;23;20013;-85
2023/12/13 01:56:44;;;;;;;26.35;14.00;;;;;;;;;;6087518;23;20062;-84
2023/12/13 01:59:10;;;;;;;27.40;15.05;;;;;;;;;;6097835;23;20009;-85
2023/12/13 02:01:41;;;;;;;25.30;14.50;;;;;;;;;;6096758;23;20033;-85
2023/12/13 02:04:14;;;;;;;24.70;14.25;;;;;;;;;;6083180;23;20117;-83
2023/12/13 02:06:42;;;;;;;26.65;15.32;;;;;;;;;;6122151;23;20006;-84
2023/12/13 02:09:08;;;;;;;25.40;14.50;;;;;;;;;;6121703;23;20025;-84
2023/12/13 02:11:39;;;;;;;25.98;15.05;;;;;;;;;;6082189;23;20439;-83
2023/12/13 02:14:04;;;;;;;27.85;15.43;;;;;;;;;;6085358;23;20020;-85
2023/12/13 02:16:32;;;;;;;25.58;14.20;;;;;;;;;;6109261;23;20029;-84
2023/12/13 02:18:57;;;;;;;;;;;;;;;;;;6122059;23;20083;-84
2023/12/13 02:21:25;;;;;;;24.83;13.77;;;;;;;;;;6130402;23;20327;-84
2023/12/13 02:23:54;;;;;;;27.77;15.35;;;;;;;;;;6096912;23;20328;-84
2023/12/13 02:26:19;;;;;;;26.80;15.15;;;;;;;;;;6102837;23;20036;-84
2023/12/13 02:29:17;;;;;;;26.05;14.60;;;;;;;;;;6067367;23;20022;-84
2023/12/13 02:31:48;;;;;;;27.38;15.48;;;;;;;;;;6100047;23;20056;-84
2023/12/13 02:34:52;;;;;;;27.08;14.88;;;;;;;;;;6082489;23;20416;-84
2023/12/13 02:37:32;;;;;;;29.88;15.25;;;;;;;;;;6080977;23;20093;-84
2023/12/13 02:40:06;;;;;;;25.48;14.48;;;;;;;;;;6083969;23;20037;-84
2023/12/13 02:42:31;;;;;;;28.80;15.60;;;;;;;;;;6075999;23;20021;-85
2023/12/13 02:44:57;;;;;;;26.77;15.10;;;;;;;;;;6120540;23;20403;-85
2023/12/13 02:47:25;;;;;;;25.63;16.15;;;;;;;;;;6101224;23;20410;-84
2023/12/13 02:50:11;;;;;;;25.02;14.55;;;;;;;;;;6070952;23;20101;-84
2023/12/13 02:52:40;;;;;;;28.30;16.15;;;;;;;;;;6112471;23;20017;-84
2023/12/13 02:55:07;;;;;;;27.77;15.70;;;;;;;;;;6096342;23;20066;-84
2023/12/13 02:57:32;;;;;;;28.70;16.05;;;;;;;;;;6120488;23;20072;-84
2023/12/13 02:59:58;;;;;;;28.17;15.40;;;;;;;;;;6121758;23;20005;-86
2023/12/13 03:02:27;;;;;;;26.05;15.45;;;;;;;;;;6121541;23;20013;-84
2023/12/13 03:04:52;;;;;;;27.40;15.75;;;;;;;;;;6097267;23;20478;-84
2023/12/13 03:07:18;;;;;;;25.88;14.93;;;;;;;;;;6096047;23;20025;-85
2023/12/13 03:09:44;;;;;;;29.70;16.00;;;;;;;;;;6096673;23;20036;-84
2023/12/13 03:12:10;;;;;;;27.88;16.15;;;;;;;;;;6104309;23;20021;-84
2023/12/13 03:14:35;;;;;;;25.50;15.80;;;;;;;;;;6074929;23;20399;-85
2023/12/13 03:17:01;;;;;;;27.65;15.02;;;;;;;;;;6073483;23;20018;-82
2023/12/13 03:19:26;;;;;;;25.98;15.25;;;;;;;;;;6116487;23;20009;-85
2023/12/13 03:21:51;;;;;;;28.33;14.70;;;;;;;;;;6120046;23;20014;-84
2023/12/13 03:24:17;;;;;;;28.90;15.35;;;;;;;;;;6095996;23;20114;-84
2023/12/13 03:26:42;;;;;;;26.48;15.40;;;;;;;;;;6078731;23;20022;-85
2023/12/13 03:29:08;;;;;;;29.25;16.77;;;;;;;;;;6092524;23;20014;-83
2023/12/13 03:31:37;;;;;;;28.05;16.40;;;;;;;;;;6073307;23;20081;-83
2023/12/13 03:34:15;;;;;;;26.60;15.60;;;;;;;;;;6100532;23;20096;-84
2023/12/13 03:36:40;;;;;;;;;;;;;;;;;;6099145;23;20017;-85
2023/12/13 03:39:17;;;;;;;29.70;15.48;;;;;;;;;;6095469;23;19916;-85
2023/12/13 03:41:42;;;;;;;25.00;15.65;;;;;;;;;;6119635;23;20009;-84
2023/12/13 03:44:07;;;;;;;27.73;15.07;;;;;;;;;;6119159;23;20013;-82
2023/12/13 03:47:00;;;;;;;27.17;15.52;;;;;;;;;;6078937;23;20021;-84
2023/12/13 03:49:25;;;;;;;24.30;15.27;;;;;;;;;;6106086;23;20014;-83
2023/12/13 03:51:51;;;;;;;28.25;15.75;;;;;;;;;;6082538;23;20047;-85
2023/12/13 03:54:19;;;;;;;26.40;15.43;;;;;;;;;;6095381;23;20029;-84
2023/12/13 03:56:45;;;;;;;31.05;15.82;;;;;;;;;;6095930;23;20347;-85
2023/12/13 03:59:10;;;;;;;28.25;15.63;;;;;;;;;;6097075;23;20018;-85
2023/12/13 04:01:36;;;;;;;28.15;15.32;;;;;;;;;;6120272;23;20456;-84
2023/12/13 04:04:02;;;;;;;26.52;16.15;;;;;;;;;;6119986;23;20019;-83
2023/12/13 04:06:29;;;;;;;27.05;15.25;;;;;;;;;;6097084;23;20024;-84
2023/12/13 04:08:55;;;;;;;;;;;;;;;;;;6081318;23;20462;-84
2023/12/13 04:11:21;;;;;;;25.73;14.52;;;;;;;;;;6120558;23;19912;-84
2023/12/13 04:13:46;;;;;;;25.98;15.13;;;;;;;;;;6096214;23;20088;-85
2023/12/13 04:16:29;;;;;;;26.98;16.08;;;;;;;;;;6080002;23;20028;-84
2023/12/13 04:18:55;;;;;;;30.25;16.17;;;;;;;;;;6034387;23;20435;-85
2023/12/13 04:21:20;;;;;;;30.77;16.00;;;;;;;;;;6107250;23;20084;-85
2023/12/13 04:24:06;;;;;;;28.65;16.02;;;;;;;;;;6125001;23;20017;-84
2023/12/13 04:26:32;;;;;;;27.30;14.70;;;;;;;;;;6119397;23;20064;-84
2023/12/13 04:29:14;;;;;;;27.83;14.80;;;;;;;;;;6068008;23;20009;-84
2023/12/13 04:31:43;;;;;;;25.85;14.65;;;;;;;;;;6034324;23;20014;-84
2023/12/13 04:34:08;;;;;;;24.17;14.75;;;;;;;;;;6019380;23;20097;-84
2023/12/13 04:37:03;;;;;;;24.02;15.07;;;;;;;;;;6038275;23;20021;-84
2023/12/13 04:39:29;;;;;;;26.60;15.15;;;;;;;;;;6089030;23;20062;-84
2023/12/13 04:41:55;;;;;;;29.75;16.48;;;;;;;;;;6095752;23;20018;-84
2023/12/13 04:44:27;;;;;;;31.65;16.23;;;;;;;;;;6095548;23;20451;-84
2023/12/13 04:46:56;;;;;;;28.60;16.50;;;;;;;;;;6104979;23;20028;-83
2023/12/13 04:49:21;;;;;;;28.13;15.20;;;;;;;;;;6120920;23;20421;-83
2023/12/13 04:51:47;;;;;;;31.35;16.48;;;;;;;;;;6095033;23;20025;-82
2023/12/13 04:54:12;;;;;;;32.72;16.30;;;;;;;;;;6091118;23;20022;-82
2023/12/13 04:56:38;;;;;;;25.45;15.90;;;;;;;;;;6083664;23;20068;-82
2023/12/13 04:59:03;;;;;;;29.40;15.85;;;;;;;;;;6095285;23;20092;-83
2023/12/13 05:01:28;;;;;;;29.60;15.68;;;;;;;;;;6082900;23;20048;-83
2023/12/13 05:04:00;;;;;;;29.17;15.98;;;;;;;;;;6120889;23;20856;-83
2023/12/13 05:06:28;;;;;;;29.58;16.95;;;;;;;;;;6120615;23;20025;-82
2023/12/13 05:08:54;;;;;;;30.27;17.02;;;;;;;;;;6122142;23;20024;-84
2023/12/13 05:11:19;;;;;;;39.88;20.80;;;;;;;;;;6097676;23;20009;-86
2023/12/13 05:13:45;;;;;;;32.08;17.17;;;;;;;;;;6079987;23;20029;-85
2023/12/13 05:16:11;;;;;;;30.00;16.55;;;;;;;;;;6075516;23;20534;-86
2023/12/13 05:18:36;;;;;;;28.10;16.67;;;;;;;;;;6097448;23;20017;-83
2023/12/13 05:21:02;;;;;;;29.27;15.77;;;;;;;;;;6086143;23;20484;-82
2023/12/13 05:23:28;;;;;;;32.65;16.60;;;;;;;;;;6107568;23;20025;-85
2023/12/13 05:25:53;;;;;;;30.88;17.25;;;;;;;;;;6096321;23;20530;-80
2023/12/13 05:28:19;;;;;;;32.60;17.77;;;;;;;;;;6121895;23;20017;-81
2023/12/13 05:30:44;;;;;;;32.42;17.50;;;;;;;;;;6097383;23;20018;-81
2023/12/13 05:33:10;;;;;;;26.48;15.93;;;;;;;;;;6061723;23;20156;-81
2023/12/13 05:35:35;;;;;;;32.22;17.00;;;;;;;;;;6092755;23;20014;-81
2023/12/13 05:38:01;;;;;;;28.70;16.48;;;;;;;;;;6089593;23;20014;-81
2023/12/13 05:40:26;;;;;;;26.80;16.88;;;;;;;;;;6092540;23;20033;-80
2023/12/13 05:42:52;;;;;;;29.98;16.70;;;;;;;;;;6121382;23;20006;-80
2023/12/13 05:45:20;;;;;;;31.98;17.42;;;;;;;;;;6096523;23;20022;-80
2023/12/13 05:47:45;;;;;;;30.35;16.65;;;;;;;;;;6061634;23;20013;-80
2023/12/13 05:50:11;;;;;;;31.02;17.02;;;;;;;;;;6066487;23;20088;-80
2023/12/13 05:52:38;;;;;;;31.60;16.73;;;;;;;;;;6121496;23;20092;-81
2023/12/13 05:55:04;;;;;;;;;;;;;;;;;;6106851;23;20021;-81
2023/12/13 05:57:30;;;;;;;33.65;17.60;;;;;;;;;;6071360;23;19909;-80
2023/12/13 06:00:00;;;;;;;30.23;16.27;;;;;;;;;;6122045;23;20404;-82
2023/12/13 06:02:35;;;;;;;30.77;17.25;;;;;;;;;;6079047;23;20045;-82
2023/12/13 06:05:03;;;;;;;30.50;17.30;;;;;;;;;;6121015;23;20625;-82
2023/12/13 06:08:07;;;;;;;29.45;17.52;;;;;;;;;;6067632;23;20423;-82
2023/12/13 06:10:32;;;;;;;27.52;16.73;;;;;;;;;;6110149;23;20289;-82
2023/12/13 06:12:58;;;;;;;30.25;17.65;;;;;;;;;;6098418;23;20071;-82
2023/12/13 06:15:23;;;;;;;30.27;16.58;;;;;;;;;;6097909;23;20112;-82
2023/12/13 06:17:49;;;;;;;31.30;18.58;;;;;;;;;;6059023;23;20070;-81
2023/12/13 06:20:51;;;;;;;31.33;18.08;;;;;;;;;;6096548;23;20025;-81
2023/12/13 06:23:19;;;;;;;31.58;16.92;;;;;;;;;;5979978;23;20023;-81
2023/12/13 06:25:44;;;;;;;29.27;16.75;;;;;;;;;;6030950;23;20097;-82
2023/12/13 06:28:10;;;;;;;32.95;16.83;;;;;;;;;;6065483;23;20037;-82
2023/12/13 06:30:36;;;;;;;28.65;17.88;;;;;;;;;;6120783;23;20021;-82
2023/12/13 06:33:01;;;;;;;30.42;17.13;;;;;;;;;;6061122;23;20037;-82
2023/12/13 06:35:27;;;;;;;33.22;18.75;;;;;;;;;;6096888;23;20048;-82
2023/12/13 06:38:29;;;;;;;28.85;16.90;;;;;;;;;;6083165;23;20017;-82
2023/12/13 06:41:00;;;;;;;30.55;16.40;;;;;;;;;;6100817;23;20515;-82
2023/12/13 06:43:28;;;;;;;30.42;17.63;;;;;;;;;;6121636;23;20044;-82
2023/12/13 06:45:54;;;;;;;30.85;17.30;;;;;;;;;;6120965;23;20028;-82
2023/12/13 06:48:20;;;;;;;28.60;16.77;;;;;;;;;;6095979;23;20017;-82
2023/12/13 06:50:45;;;;;;;25.63;16.30;;;;;;;;;;6096814;23;20036;-83
2023/12/13 06:53:11;;;;;;;29.30;16.10;;;;;;;;;;6122747;23;20014;-82
2023/12/13 06:55:36;;;;;;;28.77;17.58;;;;;;;;;;6107290;23;20032;-82
2023/12/13 06:58:01;;;;;;;28.42;16.55;;;;;;;;;;6121658;23;20013;-83
2023/12/13 07:00:27;;;;;;;27.58;17.13;;;;;;;;;;6097726;23;20097;-83
2023/12/13 07:03:01;;;;;;;27.77;15.82;;;;;;;;;;6089716;23;20463;-84
2023/12/13 07:05:30;;;;;;;24.77;15.85;;;;;;;;;;6091135;23;20456;-83
2023/12/13 07:07:55;;;;;;;24.13;15.25;;;;;;;;;;6098713;23;20013;-83
2023/12/13 07:10:21;;;;;;;24.58;15.05;;;;;;;;;;6098471;23;20017;-84
2023/12/13 07:12:47;;;;;;;26.20;15.70;;;;;;;;;;6096691;23;20418;-83
2023/12/13 07:15:13;;;;;;;24.42;15.50;;;;;;;;;;6122127;23;20041;-83
2023/12/13 07:17:39;;;;;;;22.73;13.90;;;;;;;;;;6121011;23;20014;-83
2023/12/13 07:20:06;;;;;;;24.63;15.98;;;;;;;;;;6122245;23;20108;-84
2023/12/13 07:22:31;;;;;;;26.67;15.73;;;;;;;;;;6097114;23;20010;-83
2023/12/13 07:24:57;;;;;;;25.48;15.85;;;;;;;;;;6109091;23;20308;-84
2023/12/13 07:27:22;;;;;;;26.05;15.55;;;;;;;;;;6096288;23;20013;-83
2023/12/13 07:29:47;;;;;;;24.77;14.48;;;;;;;;;;6083325;23;20020;-83
2023/12/13 07:32:13;;;;;;;24.70;15.60;;;;;;;;;;6080861;23;20021;-84
2023/12/13 07:34:38;;;;;;;26.05;16.20;;;;;;;;;;6097331;23;20604;-83
2023/12/13 07:37:03;;;;;;;24.45;15.98;;;;;;;;;;6095532;23;20040;-83
2023/12/13 07:39:35;;;;;;;26.17;15.35;;;;;;;;;;6072930;23;20025;-84
2023/12/13 07:42:03;;;;;;;26.27;15.60;;;;;;;;;;6055331;23;20042;-83
2023/12/13 07:44:32;;;;;;;24.55;15.07;;;;;;;;;;6095047;23;20010;-83
2023/12/13 07:46:58;;;;;;;23.33;15.45;;;;;;;;;;6068910;23;20076;-83
2023/12/13 07:49:26;;;;;;;25.30;15.95;;;;;;;;;;6072264;23;20010;-83
2023/12/13 07:51:51;;;;;;;27.05;17.08;;;;;;;;;;6098256;23;20022;-84
2023/12/13 07:54:18;;;;;;;25.60;14.98;;;;;;;;;;6074417;23;20024;-84
2023/12/13 07:56:45;;;;;;;24.40;15.00;;;;;;;;;;6068344;23;20010;-83
2023/12/13 07:59:11;;;;;;;25.00;15.48;;;;;;;;;;6080677;23;20089;-84
2023/12/13 08:01:36;;;;;;;24.75;15.82;;;;;;;;;;6089006;23;20110;-83
2023/12/13 08:04:02;;;;;;;23.83;15.45;;;;;;;;;;6090355;23;20018;-83
2023/12/13 08:06:28;;;;;;;24.42;15.68;;;;;;;;;;6053717;23;20032;-83
2023/12/13 08:08:53;;;;;;;26.23;15.50;;;;;;;;;;6072746;23;20452;-82
2023/12/13 08:11:25;;;;;;;24.15;14.95;;;;;;;;;;6090635;23;21892;-83
2023/12/13 08:13:51;;;;;;;23.70;14.75;;;;;;;;;;6072418;23;20017;-84
2023/12/13 08:16:17;;;;;;;23.73;14.70;;;;;;;;;;6063872;23;20074;-85
2023/12/13 08:18:42;;;;;;;23.88;14.98;;;;;;;;;;6054848;23;20701;-83
2023/12/13 08:21:08;;;;;;;23.70;14.45;;;;;;;;;;6091332;23;20026;-83
2023/12/13 08:23:37;;;;;;;25.15;14.68;;;;;;;;;;6061308;23;20018;-83
2023/12/13 08:26:14;;;;;;;23.50;13.93;;;;;;;;;;6030749;23;20020;-83
2023/12/13 08:28:39;;;;;;;23.90;13.90;;;;;;;;;;6102287;23;20030;-82
2023/12/13 08:31:05;;;;;;;22.65;13.98;;;;;;;;;;6092163;23;20028;-84
2023/12/13 08:33:31;;;;;;;22.88;14.15;;;;;;;;;;6087798;23;20633;-84
2023/12/13 08:35:56;;;;;;;23.08;13.95;;;;;;;;;;6116860;23;20024;-81
2023/12/13 08:38:24;;;;;;;21.73;13.77;;;;;;;;;;6116574;23;20041;-85
2023/12/13 08:40:57;;;;;;;26.55;15.30;;;;;;;;;;6090190;23;20045;-83
2023/12/13 08:43:23;;;;;;;26.88;16.13;;;;;;;;;;6106980;23;20108;-83
2023/12/13 08:45:48;;;;;;;23.13;14.95;;;;;;;;;;6106128;23;20746;-84
2023/12/13 08:48:30;;;;;;;25.98;15.45;;;;;;;;;;6054679;23;20026;-83
2023/12/13 08:50:59;;;;;;;27.05;15.55;;;;;;;;;;6040200;23;20494;-83
2023/12/13 08:53:24;;;;;;;23.63;14.73;;;;;;;;;;6069851;23;20018;-84
2023/12/13 08:55:52;;;;;;;26.65;15.20;;;;;;;;;;6060186;23;20076;-83
2023/12/13 08:58:18;;;;;;;27.15;15.35;;;;;;;;;;6060905;23;20478;-83
2023/12/13 09:00:43;;;;;;;24.00;14.35;;;;;;;;;;6075508;23;20014;-84
2023/12/13 09:03:09;;;;;;;26.63;15.18;;;;;;;;;;6077524;23;20017;-83
2023/12/13 09:05:38;;;;;;;25.42;14.32;;;;;;;;;;6067333;23;20017;-83
2023/12/13 09:08:04;;;;;;;27.13;15.90;;;;;;;;;;6102287;23;20020;-83
2023/12/13 09:10:29;;;;;;;27.77;15.52;;;;;;;;;;6092324;23;20021;-84
2023/12/13 09:12:55;;;;;;;27.33;15.48;;;;;;;;;;6082089;23;20475;-83
2023/12/13 09:15:20;;;;;;;25.38;15.43;;;;;;;;;;6092128;23;20408;-83
2023/12/13 09:17:48;;;;;;;27.27;15.30;;;;;;;;;;6115309;23;20022;-83
2023/12/13 09:20:14;;;;;;;29.00;15.63;;;;;;;;;;6094066;23;20270;-83
2023/12/13 09:25:52;;;;;;;27.17;16.13;;;;;;;;;;6073548;23;20022;-83
2023/12/13 09:28:18;;;;;;;27.05;15.60;;;;;;;;;;6115293;23;20379;-84
2023/12/13 09:30:44;;;;;;;26.83;15.88;;;;;;;;;;6082510;23;20010;-84
2023/12/13 09:33:13;;;;;;;27.63;16.52;;;;;;;;;;6095373;23;20460;-84
2023/12/13 09:35:39;;;;;;;27.67;15.88;;;;;;;;;;6079860;23;20017;-84
2023/12/13 09:38:07;;;;;;;28.08;15.68;;;;;;;;;;6106031;23;20029;-84
2023/12/13 09:40:33;;;;;;;28.27;15.75;;;;;;;;;;6082275;23;20082;-85
2023/12/13 09:43:08;;;;;;;29.92;16.90;;;;;;;;;;6082181;23;20433;-84
2023/12/13 09:45:34;;;;;;;27.83;15.20;;;;;;;;;;6077268;23;20468;-84
2023/12/13 09:48:00;;;;;;;28.88;16.63;;;;;;;;;;6092471;23;20508;-84
2023/12/13 09:50:28;;;;;;;30.23;16.90;;;;;;;;;;6106340;23;20093;-84
2023/12/13 09:52:55;;;;;;;31.10;17.35;;;;;;;;;;6093008;23;20453;-84
2023/12/13 09:55:21;;;;;;;32.53;17.90;;;;;;;;;;6117659;23;20017;-84
2023/12/13 09:57:46;;;;;;;30.55;17.33;;;;;;;;;;6117128;23;20277;-83
2023/12/13 10:00:12;;;;;;;29.90;17.80;;;;;;;;;;6079520;23;20468;-83
2023/12/13 10:02:55;;;;;;;30.05;17.50;;;;;;;;;;6046304;23;20021;-84
2023/12/13 10:05:22;;;;;;;29.10;16.83;;;;;;;;;;6077339;23;20022;-84
2023/12/13 10:07:48;;;;;;;30.90;16.80;;;;;;;;;;6094039;23;20045;-84
2023/12/13 10:10:17;;;;;;;29.25;16.92;;;;;;;;;;6093003;23;20525;-84
2023/12/13 10:12:49;;;;;;;28.40;17.20;;;;;;;;;;6071069;23;20018;-83
2023/12/13 10:15:15;;;;;;;29.90;17.08;;;;;;;;;;6081590;23;20026;-84
2023/12/13 10:17:40;;;;;;;29.77;16.23;;;;;;;;;;6100734;23;20020;-84
2023/12/13 10:20:21;;;;;;;30.08;17.55;;;;;;;;;;6060109;23;20462;-83
2023/12/13 10:22:47;;;;;;;28.83;16.98;;;;;;;;;;6106988;23;20057;-84
2023/12/13 10:25:13;;;;;;;31.20;17.80;;;;;;;;;;6099892;23;20451;-84
2023/12/13 10:27:45;;;;;;;34.28;18.38;;;;;;;;;;6098315;23;20021;-83
2023/12/13 10:30:12;;;;;;;33.17;18.90;;;;;;;;;;6097522;23;20013;-83
2023/12/13 10:32:37;;;;;;;31.95;17.92;;;;;;;;;;6096514;23;20021;-83
2023/12/13 10:35:04;;;;;;;32.88;19.27;;;;;;;;;;6047185;23;20018;-83
2023/12/13 10:37:36;;;;;;;37.20;19.60;;;;;;;;;;6039323;23;20076;-83
2023/12/13 10:40:31;;;;;;;36.10;19.10;;;;;;;;;;6109257;23;20080;-83
2023/12/13 10:42:59;;;;;;;37.33;19.25;;;;;;;;;;6120732;23;20744;-83
2023/12/13 10:45:25;;;;;;;40.35;20.23;;;;;;;;;;6096670;23;20033;-84
2023/12/13 10:47:56;;;;;;;35.15;19.52;;;;;;;;;;6096112;23;20080;-84
2023/12/13 10:50:22;;;;;;;38.80;20.55;;;;;;;;;;6098660;23;20010;-83
2023/12/13 10:52:48;;;;;;;38.40;20.05;;;;;;;;;;6095282;23;20017;-83
2023/12/13 10:55:15;;;;;;;39.95;21.23;;;;;;;;;;6097156;23;20356;-84
2023/12/13 10:57:42;;;;;;;36.03;19.67;;;;;;;;;;6096218;23;20013;-84
2023/12/13 11:00:25;;;;;;;37.95;20.67;;;;;;;;;;6051641;23;20014;-86
2023/12/13 11:03:33;;;;;;;37.15;20.17;;;;;;;;;;6080456;23;20116;-85
2023/12/13 11:06:05;;;;;;;42.85;20.33;;;;;;;;;;6099612;23;20460;-82
2023/12/13 11:08:38;;;;;;;40.25;21.00;;;;;;;;;;6080167;23;20022;-82
2023/12/13 11:11:05;;;;;;;42.72;21.23;;;;;;;;;;6105658;23;20013;-83
2023/12/13 11:13:31;;;;;;;40.22;21.23;;;;;;;;;;6116371;23;20029;-83
2023/12/13 11:15:59;;;;;;;40.53;21.88;;;;;;;;;;6090224;23;20010;-83
2023/12/13 11:18:25;;;;;;;38.42;20.10;;;;;;;;;;6064225;23;20530;-83
2023/12/13 11:20:58;;;;;;;38.17;20.92;;;;;;;;;;6104574;23;20054;-82
2023/12/13 11:23:27;;;;;;;35.78;19.80;;;;;;;;;;6068532;23;20117;-83
2023/12/13 11:25:54;;;;;;;34.20;19.30;;;;;;;;;;6062771;23;20467;-82
2023/12/13 11:28:31;;;;;;;33.53;18.92;;;;;;;;;;6052053;23;20345;-82
2023/12/13 11:31:20;;;;;;;37.13;19.17;;;;;;;;;;6051881;23;20029;-82
2023/12/13 11:33:47;;;;;;;34.30;19.20;;;;;;;;;;6068437;23;20460;-83
2023/12/13 11:36:17;;;;;;;34.92;19.05;;;;;;;;;;6118108;23;20053;-85
2023/12/13 11:38:43;;;;;;;34.45;18.05;;;;;;;;;;6079170;23;20021;-84
2023/12/13 11:41:29;;;;;;;35.15;19.17;;;;;;;;;;6080835;23;20371;-85
2023/12/13 11:43:54;;;;;;;40.03;20.58;;;;;;;;;;6023238;23;20015;-85
2023/12/13 11:46:20;;;;;;;35.35;19.80;;;;;;;;;;6000255;23;20163;-86
2023/12/13 11:48:45;;;;;;;32.75;19.08;;;;;;;;;;6032736;23;20046;-84
2023/12/13 11:51:10;;;;;;;32.28;18.33;;;;;;;;;;6030647;23;20027;-83
2023/12/13 11:53:36;;;;;;;31.65;17.80;;;;;;;;;;6056967;23;20023;-83
2023/12/13 11:56:10;;;;;;;31.77;18.90;;;;;;;;;;6048114;23;20401;-83
2023/12/13 11:58:35;;;;;;;32.17;18.58;;;;;;;;;;6017520;23;20421;-84
2023/12/13 12:01:01;;;;;;;35.05;18.83;;;;;;;;;;6025921;23;20030;-82
2023/12/13 12:03:26;;;;;;;31.63;18.52;;;;;;;;;;5987185;23;20023;-86
2023/12/13 12:05:52;;;;;;;31.42;18.98;;;;;;;;;;6013261;23;20018;-84
2023/12/13 12:08:23;;;;;;;30.75;17.73;;;;;;;;;;6031126;23;20026;-84
2023/12/13 12:10:50;;;;;;;30.85;18.73;;;;;;;;;;6029754;23;20027;-84
2023/12/13 12:13:18;;;;;;;32.63;17.60;;;;;;;;;;6027670;23;20106;-82
2023/12/13 12:15:44;;;;;;;30.52;18.23;;;;;;;;;;6031136;23;20019;-85
2023/12/13 12:18:13;;;;;;;32.45;17.95;;;;;;;;;;6033114;23;20029;-85
2023/12/13 12:20:42;;;;;;;32.10;18.48;;;;;;;;;;6066027;23;20448;-84
2023/12/13 12:23:09;;;;;;;33.17;18.30;;;;;;;;;;6095886;23;20028;-84
2023/12/13 12:28:27;;;;;;;34.08;18.45;;;;;;;;;;6067878;23;20013;-85
2023/12/13 12:30:52;;;;;;;36.83;19.55;;;;;;;;;;6080681;23;20013;-86
2023/12/13 12:33:18;;;;;;;37.13;20.73;;;;;;;;;;6085593;23;20368;-85
2023/12/13 12:35:44;;;;;;;32.35;18.88;;;;;;;;;;6119132;23;20018;-84
2023/12/13 12:38:17;;;;;;;36.78;19.73;;;;;;;;;;6119523;23;20018;-85
2023/12/13 12:40:44;;;;;;;36.03;19.33;;;;;;;;;;6118003;23;20048;-84
2023/12/13 12:43:10;;;;;;;34.85;19.95;;;;;;;;;;6066093;23;20057;-85
2023/12/13 12:45:36;;;;;;;36.78;20.25;;;;;;;;;;6031884;23;20031;-83
2023/12/13 12:48:04;;;;;;;38.50;20.17;;;;;;;;;;6084562;23;20013;-84
2023/12/13 12:50:29;;;;;;;38.15;20.98;;;;;;;;;;6069497;23;20029;-85
2023/12/13 12:53:15;;;;;;;39.03;20.83;;;;;;;;;;6097565;23;20021;-84
2023/12/13 12:55:41;;;;;;;36.47;19.65;;;;;;;;;;6058625;23;20018;-84
2023/12/13 12:58:09;;;;;;;33.03;19.10;;;;;;;;;;6075044;23;20044;-84
2023/12/13 13:00:34;;;;;;;;;;;;;;;;;;6062970;23;20018;-85
2023/12/13 13:03:20;;;;;;;39.13;20.40;;;;;;;;;;6055008;23;20362;-85
2023/12/13 13:05:45;;;;;;;43.45;21.40;;;;;;;;;;6077146;23;20483;-84
2023/12/13 13:08:16;;;;;;;39.20;20.90;;;;;;;;;;6116658;23;20018;-85
2023/12/13 13:10:51;;;;;;;43.45;21.80;;;;;;;;;;6074299;23;20081;-84
2023/12/13 13:13:17;;;;;;;44.28;22.65;;;;;;;;;;6072879;23;20666;-84
2023/12/13 13:15:43;;;;;;;42.58;22.90;;;;;;;;;;6073488;23;20017;-84
2023/12/13 13:18:27;;;;;;;47.47;23.33;;;;;;;;;;6089461;23;20022;-84
2023/12/13 13:20:54;;;;;;;42.20;22.27;;;;;;;;;;6090482;23;20020;-84
2023/12/13 13:23:31;;;;;;;45.95;22.73;;;;;;;;;;6091451;23;20053;-84
2023/12/13 13:26:00;;;;;;;41.20;22.52;;;;;;;;;;6084057;23;20016;-84
2023/12/13 13:28:32;;;;;;;40.53;21.13;;;;;;;;;;6095198;23;20018;-84
2023/12/13 13:31:00;;;;;;;46.15;22.13;;;;;;;;;;6092042;23;20014;-83
2023/12/13 13:33:26;;;;;;;40.58;21.92;;;;;;;;;;6093434;23;20518;-83
2023/12/13 13:35:52;;;;;;;43.20;21.88;;;;;;;;;;6093952;23;20018;-84
2023/12/13 13:38:17;;;;;;;42.83;22.02;;;;;;;;;;6094101;23;20018;-83
2023/12/13 13:40:43;;;;;;;45.33;22.75;;;;;;;;;;6057187;23;20041;-84
2023/12/13 13:43:08;;;;;;;45.25;22.83;;;;;;;;;;6069032;23;20018;-84
2023/12/13 13:45:34;;;;;;;43.33;21.88;;;;;;;;;;6079530;23;20073;-84
2023/12/13 13:48:00;;;;;;;47.08;23.38;;;;;;;;;;6037872;23;20393;-84
2023/12/13 13:50:26;;;;;;;43.78;22.25;;;;;;;;;;6077710;23;20018;-84
2023/12/13 13:53:04;;;;;;;44.75;23.42;;;;;;;;;;6071727;23;20069;-83
2023/12/13 13:55:29;;;;;;;;;;;;;;;;;;6069084;23;20041;-83
2023/12/13 13:57:55;;;;;;;45.05;20.77;;;;;;;;;;6075424;23;19915;-83
2023/12/13 14:00:20;;;;;;;43.22;22.35;;;;;;;;;;6094083;23;22488;-83
2023/12/13 14:02:46;;;;;;;47.03;22.73;;;;;;;;;;6089497;23;20041;-83
2023/12/13 14:05:12;;;;;;;49.40;22.98;;;;;;;;;;6085328;23;20029;-84
2023/12/13 14:07:38;;;;;;;49.70;23.77;;;;;;;;;;6089531;23;20024;-84
2023/12/13 14:10:10;;;;;;;45.08;22.73;;;;;;;;;;6118202;23;20045;-84
2023/12/13 14:12:35;;;;;;;52.85;22.30;;;;;;;;;;6084622;23;20026;-83
2023/12/13 14:15:19;;;;;;;42.90;21.67;;;;;;;;;;6094597;23;20356;-84
2023/12/13 14:17:47;;;;;;;46.88;21.73;;;;;;;;;;6104073;23;20029;-84
2023/12/13 14:23:32;;;;;;;51.90;21.65;;;;;;;;;;6068495;23;20056;-83
2023/12/13 14:25:57;;;;;;;50.38;21.35;;;;;;;;;;6065525;23;20699;-82
2023/12/13 14:28:23;;;;;;;44.53;21.67;;;;;;;;;;6052317;23;20086;-82
2023/12/13 14:30:49;;;;;;;51.60;22.75;;;;;;;;;;6080816;23;20009;-82
2023/12/13 14:33:23;;;;;;;51.20;22.38;;;;;;;;;;6054104;23;20068;-83
2023/12/13 14:35:53;;;;;;;51.28;23.13;;;;;;;;;;6048034;23;20041;-83
2023/12/13 14:38:39;;;;;;;50.97;22.95;;;;;;;;;;6076497;23;20025;-82
2023/12/13 14:41:26;;;;;;;;;;;;;;;;;;;;;